Kampsville, Illinois
Current Conditions -  °F | °C
As of 12:55 AM on Friday 31 Oct 2014 (Local Time) from KPPQ Reporting Station
Broken Clouds Broken Clouds  
Wind Chill: 46°   Ceiling: 7500
Heat Index: 46°   Visibility: 10mi
Dew Point: 43°   Wind: 3mph
Humidity: 87%   Direction: 340°NNW
Pressure: 30.11"   Gusts: NA
Location:  39.3°N, 90.61°W
Report Text: KPPQ 310555Z AUTO 34003KT 10SM BKN075 BKN095 BKN120 08/06 A3011 RMK AO2 T00790059 10097 20072 401300009
Loading
Personal Weather Stations






























Interactive Weather Map
Tropical Storm Tracking
New forecast layout! Learn more

10-Day Weather Forecast

Advertisements
Track Severe Weather on mobile